createdAt,value
2022-12-11T00:02:23.495Z,99400.94
2022-12-11T00:04:50.321Z,99407.41
2022-12-11T00:07:17.069Z,99404.47
2022-12-11T00:09:43.673Z,99401.34
2022-12-11T00:12:10.381Z,99408.09
2022-12-11T00:14:37.062Z,99408.47
2022-12-11T00:17:03.947Z,99407.69
2022-12-11T00:19:30.797Z,99407.75
2022-12-11T00:21:57.435Z,99405.97
2022-12-11T00:24:24.178Z,99405.31
2022-12-11T00:26:51.037Z,99399.75
2022-12-11T00:29:17.817Z,99406.56
2022-12-11T00:31:44.532Z,99409.13
2022-12-11T00:34:11.964Z,99401.28
2022-12-11T00:40:57.632Z,99394.53
2022-12-11T00:43:24.387Z,99396.28
2022-12-11T00:45:51.154Z,99399.91
2022-12-11T00:48:17.868Z,99411.50
2022-12-11T00:54:37.841Z,99398.91
2022-12-11T00:57:04.463Z,99398.84
2022-12-11T01:00:33.487Z,99410.13
2022-12-11T01:03:00.239Z,99404.63
2022-12-11T01:05:27.336Z,99393.69
2022-12-11T01:07:54.123Z,99407.63
2022-12-11T01:10:27.010Z,99402.34
2022-12-11T01:12:56.809Z,99405.31
2022-12-11T01:15:26.483Z,99412.13
2022-12-11T01:17:53.577Z,99402.53
2022-12-11T01:20:22.070Z,99401.75
2022-12-11T01:22:49.081Z,99402.41
2022-12-11T01:25:15.722Z,99409.66
2022-12-11T01:27:42.408Z,99403.19
2022-12-11T01:30:10.049Z,99412.28
2022-12-11T01:32:36.967Z,99410.75
2022-12-11T01:35:05.229Z,99409.81
2022-12-11T01:37:31.945Z,99405.44
2022-12-11T01:40:00.716Z,99411.84
2022-12-11T01:42:29.416Z,99407.16
2022-12-11T01:45:27.570Z,99415.47
2022-12-11T01:48:11.893Z,99411.41
2022-12-11T01:50:42.539Z,99407.91
2022-12-11T01:53:10.918Z,99413.38
2022-12-11T01:55:38.981Z,99410.53
2022-12-11T01:58:06.479Z,99416.59
2022-12-11T02:00:33.169Z,99405.97
2022-12-11T02:02:59.833Z,99411.25
2022-12-11T02:05:26.513Z,99408.16
2022-12-11T02:08:02.721Z,99401.75
2022-12-11T02:10:40.861Z,99404.13
2022-12-11T02:13:13.402Z,99415.66
2022-12-11T02:16:00.506Z,99415.66
2022-12-11T02:18:35.237Z,99417.34
2022-12-11T02:21:18.101Z,99406.91
2022-12-11T02:24:04.882Z,99409.53
2022-12-11T02:27:02.370Z,99404.69
2022-12-11T02:30:16.083Z,99413.97
2022-12-11T02:32:49.198Z,99417.25
2022-12-11T02:35:20.413Z,99425.03
2022-12-11T02:37:48.175Z,99432.94
2022-12-11T02:40:19.699Z,99433.88
2022-12-11T02:42:47.747Z,99440.56
2022-12-11T02:45:15.072Z,99442.00
2022-12-11T02:47:43.885Z,99438.56
2022-12-11T02:50:13.850Z,99433.16
2022-12-11T02:52:41.734Z,99424.59
2022-12-11T02:55:10.597Z,99427.03
2022-12-11T02:58:08.231Z,99426.50
2022-12-11T03:00:34.911Z,99430.41
2022-12-11T03:03:01.882Z,99435.63
2022-12-11T03:05:29.482Z,99432.44
2022-12-11T03:07:56.576Z,99430.72
2022-12-11T03:10:23.272Z,99428.72
2022-12-11T03:13:39.763Z,99421.84
2022-12-11T03:16:24.386Z,99426.66
2022-12-11T03:19:20.509Z,99434.34
2022-12-11T03:21:53.990Z,99445.56
2022-12-11T03:24:25.425Z,99445.97
2022-12-11T03:26:57.785Z,99441.00
2022-12-11T03:33:40.170Z,99436.47
2022-12-11T03:36:10.645Z,99428.03
2022-12-11T03:38:49.462Z,99432.25
2022-12-11T03:41:18.035Z,99429.47
2022-12-11T03:43:45.248Z,99426.53
2022-12-11T03:46:13.551Z,99425.38
2022-12-11T03:48:42.234Z,99412.16
2022-12-11T03:51:09.494Z,99417.19
2022-12-11T03:53:36.567Z,99419.88
2022-12-11T03:56:06.349Z,99421.16
2022-12-11T03:58:33.393Z,99429.00
2022-12-11T04:00:59.945Z,99429.13
2022-12-11T04:03:26.624Z,99428.91
2022-12-11T04:05:55.159Z,99425.38
2022-12-11T04:08:22.578Z,99432.28
2022-12-11T04:11:13.243Z,99424.50
2022-12-11T04:13:41.174Z,99423.50
2022-12-11T04:16:07.817Z,99418.38
2022-12-11T04:18:53.398Z,99421.91
2022-12-11T04:21:39.833Z,99417.78
2022-12-11T04:24:16.610Z,99424.38
2022-12-11T04:26:47.245Z,99426.78
2022-12-11T04:29:15.092Z,99422.91
2022-12-11T04:31:41.780Z,99420.47
2022-12-11T04:34:08.968Z,99421.00
2022-12-11T04:36:35.968Z,99419.28
2022-12-11T04:39:02.826Z,99420.63
2022-12-11T04:41:29.395Z,99412.38
2022-12-11T04:43:56.083Z,99406.41
2022-12-11T04:46:24.163Z,99403.78
2022-12-11T04:48:57.057Z,99403.94
2022-12-11T04:51:24.711Z,99405.72
2022-12-11T04:53:51.295Z,99394.28
2022-12-11T04:56:18.018Z,99396.28
2022-12-11T04:58:45.154Z,99394.44
2022-12-11T05:01:16.985Z,99396.94
2022-12-11T05:03:43.892Z,99395.13
2022-12-11T05:06:11.739Z,99399.41
2022-12-11T05:08:40.838Z,99406.22
2022-12-11T05:11:09.739Z,99412.72
2022-12-11T05:13:36.535Z,99404.03
2022-12-11T05:16:05.995Z,99402.28
2022-12-11T05:18:32.769Z,99407.41
2022-12-11T05:21:04.698Z,99408.25
2022-12-11T05:23:31.704Z,99407.16
2022-12-11T05:26:00.609Z,99405.63
2022-12-11T05:28:31.732Z,99406.63
2022-12-11T05:31:06.209Z,99412.78
2022-12-11T05:33:33.543Z,99397.72
2022-12-11T05:36:00.868Z,99403.03
2022-12-11T05:38:27.569Z,99404.47
2022-12-11T05:41:05.906Z,99406.50
2022-12-11T05:43:34.384Z,99402.28
2022-12-11T05:46:12.150Z,99403.28
2022-12-11T05:48:39.298Z,99408.25
2022-12-11T05:51:08.237Z,99405.63
2022-12-11T05:53:36.570Z,99405.81
2022-12-11T05:56:09.690Z,99407.91
2022-12-11T05:58:36.399Z,99401.34
2022-12-11T06:01:07.860Z,99399.22
2022-12-11T06:03:34.687Z,99401.41
2022-12-11T06:06:02.980Z,99397.06
2022-12-11T06:08:29.866Z,99386.75
2022-12-11T06:10:56.467Z,99389.22
2022-12-11T06:13:23.193Z,99388.28
2022-12-11T06:15:50.182Z,99390.28
2022-12-11T06:18:16.787Z,99382.47
2022-12-11T06:20:43.431Z,99374.63
2022-12-11T06:23:10.131Z,99379.00
2022-12-11T06:25:39.097Z,99373.88
2022-12-11T06:28:05.689Z,99380.09
2022-12-11T06:30:38.642Z,99376.66
2022-12-11T06:33:06.720Z,99372.50
2022-12-11T06:35:38.621Z,99363.94
2022-12-11T06:38:08.256Z,99369.56
2022-12-11T06:40:34.887Z,99368.03
2022-12-11T06:43:01.606Z,99372.09
2022-12-11T06:45:28.253Z,99367.72
2022-12-11T06:47:54.845Z,99375.22
2022-12-11T06:50:21.573Z,99365.38
2022-12-11T06:52:48.258Z,99365.44
2022-12-11T06:55:15.013Z,99358.59
2022-12-11T06:57:41.981Z,99358.97
2022-12-11T07:00:09.236Z,99358.97
2022-12-11T07:02:35.952Z,99364.25
2022-12-11T07:05:02.569Z,99367.63
2022-12-11T07:07:29.347Z,99378.06
2022-12-11T07:09:56.175Z,99372.19
2022-12-11T07:12:22.879Z,99373.25
2022-12-11T07:14:49.477Z,99365.19
2022-12-11T07:17:16.337Z,99371.66
2022-12-11T07:19:43.128Z,99375.22
2022-12-11T07:22:09.761Z,99387.63
2022-12-11T07:24:36.341Z,99385.91
2022-12-11T07:27:03.114Z,99389.38
2022-12-11T07:29:29.816Z,99386.59
2022-12-11T07:31:56.690Z,99388.22
2022-12-11T07:34:23.471Z,99385.16
2022-12-11T07:36:50.061Z,99384.72
2022-12-11T07:39:16.604Z,99383.06
2022-12-11T07:41:43.405Z,99386.50
2022-12-11T07:44:14.969Z,99387.44
2022-12-11T07:46:41.523Z,99386.75
2022-12-11T07:49:08.179Z,99398.31
2022-12-11T07:51:36.661Z,99398.81
2022-12-11T07:54:10.585Z,99404.78
2022-12-11T07:56:37.282Z,99394.69
2022-12-11T07:59:05.072Z,99412.97
2022-12-11T08:01:37.708Z,99413.56
2022-12-11T08:04:09.782Z,99406.81
2022-12-11T08:06:38.508Z,99407.63
2022-12-11T08:09:07.622Z,99403.59
2022-12-11T08:11:34.361Z,99402.41
2022-12-11T08:14:02.963Z,99403.94
2022-12-11T08:16:29.701Z,99403.03
2022-12-11T08:18:56.468Z,99398.91
2022-12-11T08:21:25.506Z,99405.97
2022-12-11T08:23:53.178Z,99407.91
2022-12-11T08:26:25.782Z,99406.03
2022-12-11T08:28:53.127Z,99394.50
2022-12-11T08:31:20.007Z,99388.34
2022-12-11T08:33:47.482Z,99391.50
2022-12-11T08:36:17.645Z,99387.22
2022-12-11T08:38:44.409Z,99382.06
2022-12-11T08:41:22.753Z,99380.69
2022-12-11T08:43:49.880Z,99385.75
2022-12-11T08:46:16.824Z,99383.66
2022-12-11T08:48:43.999Z,99389.97
2022-12-11T08:51:13.432Z,99396.66
2022-12-11T08:53:40.542Z,99397.97
2022-12-11T08:56:10.359Z,99391.91
2022-12-11T08:58:37.754Z,99398.56
2022-12-11T09:01:13.112Z,99389.28
2022-12-11T09:03:40.752Z,99385.91
2022-12-11T09:06:09.776Z,99380.44
2022-12-11T09:08:37.018Z,99388.97
2022-12-11T09:11:11.773Z,99385.69
2022-12-11T09:13:39.514Z,99393.50
2022-12-11T09:16:14.877Z,99397.66
2022-12-11T09:18:42.049Z,99394.88
2022-12-11T09:21:11.656Z,99409.72
2022-12-11T09:23:40.156Z,99403.53
2022-12-11T09:26:11.069Z,99401.03
2022-12-11T09:28:42.715Z,99403.53
2022-12-11T09:31:16.512Z,99393.28
2022-12-11T09:33:44.127Z,99392.00
2022-12-11T09:36:11.817Z,99401.34
2022-12-11T09:38:39.211Z,99406.94
2022-12-11T09:41:34.920Z,99405.50
2022-12-11T09:44:30.523Z,99397.47
2022-12-11T09:46:57.841Z,99401.53
2022-12-11T09:49:39.458Z,99395.28
2022-12-11T09:52:37.709Z,99393.94
2022-12-11T09:55:30.461Z,99385.59
2022-12-11T09:58:23.593Z,99387.28
2022-12-11T10:00:55.147Z,99382.28
2022-12-11T10:03:29.452Z,99386.09
2022-12-11T10:06:19.752Z,99387.53
2022-12-11T10:09:12.510Z,99389.13
2022-12-11T10:11:49.247Z,99389.66
2022-12-11T10:14:52.488Z,99377.53
2022-12-11T10:17:35.643Z,99381.03
2022-12-11T10:20:14.885Z,99375.81
2022-12-11T10:22:42.459Z,99369.69
2022-12-11T10:25:20.450Z,99375.31
2022-12-11T10:27:58.970Z,99373.03
2022-12-11T10:30:37.401Z,99379.19
2022-12-11T10:33:42.970Z,99373.13
2022-12-11T10:36:19.219Z,99369.50
2022-12-11T10:38:48.347Z,99370.94
2022-12-11T10:41:22.231Z,99370.09
2022-12-11T10:43:55.636Z,99358.63
2022-12-11T10:46:26.215Z,99369.00
2022-12-11T10:49:01.263Z,99360.31
2022-12-11T10:51:32.845Z,99353.91
2022-12-11T10:54:27.983Z,99364.84
2022-12-11T10:56:57.776Z,99354.91
2022-12-11T10:59:38.271Z,99344.66
2022-12-11T11:02:19.636Z,99344.47
2022-12-11T11:04:48.448Z,99351.38
2022-12-11T11:07:25.543Z,99347.09
2022-12-11T11:10:14.516Z,99347.31
2022-12-11T11:12:51.646Z,99342.09
2022-12-11T11:15:29.433Z,99346.56
2022-12-11T11:18:26.175Z,99341.94
2022-12-11T11:20:55.549Z,99340.44
2022-12-11T11:23:26.479Z,99341.19
2022-12-11T11:25:54.743Z,99336.63
2022-12-11T11:28:27.624Z,99337.47
2022-12-11T11:31:16.001Z,99335.38
2022-12-11T11:33:59.673Z,99327.44
2022-12-11T11:36:32.025Z,99332.59
2022-12-11T11:39:27.690Z,99327.28
2022-12-11T11:42:05.796Z,99325.53
2022-12-11T11:44:45.802Z,99323.94
2022-12-11T11:47:27.420Z,99321.91
2022-12-11T11:50:09.691Z,99324.06
2022-12-11T11:52:56.993Z,99318.78
2022-12-11T11:55:33.748Z,99312.03
2022-12-11T11:58:09.312Z,99313.13
2022-12-11T12:00:42.499Z,99306.22
2022-12-11T12:03:15.492Z,99307.97
2022-12-11T12:06:15.060Z,99305.53
2022-12-11T12:08:51.511Z,99302.84
2022-12-11T12:11:25.952Z,99302.03
2022-12-11T12:14:22.545Z,99308.56
2022-12-11T12:17:16.294Z,99305.69
2022-12-11T12:20:22.410Z,99303.66
2022-12-11T12:22:54.646Z,99305.84
2022-12-11T12:25:46.459Z,99301.47
2022-12-11T12:28:29.532Z,99303.00
2022-12-11T12:31:17.629Z,99301.38
2022-12-11T12:34:24.168Z,99299.97
2022-12-11T12:36:54.613Z,99299.72
2022-12-11T12:39:46.720Z,99293.38
2022-12-11T12:42:44.374Z,99293.38
2022-12-11T12:45:22.008Z,99291.44
2022-12-11T12:47:53.345Z,99293.50
2022-12-11T12:50:23.167Z,99285.03
2022-12-11T12:52:51.341Z,99282.16
2022-12-11T12:55:29.266Z,99291.31
2022-12-11T12:58:00.948Z,99281.25
2022-12-11T13:00:39.588Z,99281.91
2022-12-11T13:03:16.864Z,99281.66
2022-12-11T13:05:45.949Z,99281.28
2022-12-11T13:08:13.641Z,99278.66
2022-12-11T13:10:42.419Z,99270.75
2022-12-11T13:13:35.646Z,99273.34
2022-12-11T13:16:17.331Z,99275.03
2022-12-11T13:18:47.560Z,99274.75
2022-12-11T13:21:26.677Z,99270.66
2022-12-11T13:23:54.445Z,99268.78
2022-12-11T13:26:32.202Z,99270.94
2022-12-11T13:29:01.546Z,99277.81
2022-12-11T13:31:35.722Z,99275.41
2022-12-11T13:34:16.814Z,99275.22
2022-12-11T13:36:49.691Z,99275.97
2022-12-11T13:39:25.559Z,99276.91
2022-12-11T13:41:55.170Z,99274.19
2022-12-11T13:44:26.581Z,99270.94
2022-12-11T13:46:56.870Z,99280.38
2022-12-11T13:49:34.816Z,99272.53
2022-12-11T13:52:07.232Z,99282.03
2022-12-11T13:54:37.141Z,99281.13
2022-12-11T13:57:20.452Z,99276.81
2022-12-11T13:59:55.158Z,99279.41
2022-12-11T14:02:28.458Z,99290.63
2022-12-11T14:05:04.017Z,99283.63
2022-12-11T14:08:00.027Z,99278.41
2022-12-11T14:10:31.805Z,99275.78
2022-12-11T14:13:05.628Z,99281.00
2022-12-11T14:15:37.898Z,99278.50
2022-12-11T14:18:07.025Z,99268.97
2022-12-11T14:20:36.972Z,99267.19
2022-12-11T14:23:19.960Z,99273.44
2022-12-11T14:26:03.221Z,99276.16
2022-12-11T14:28:39.790Z,99285.78
2022-12-11T14:31:10.750Z,99288.22
2022-12-11T14:33:44.652Z,99284.84
2022-12-11T14:36:17.343Z,99289.22
2022-12-11T14:38:58.847Z,99292.09
2022-12-11T14:42:03.101Z,99294.16
2022-12-11T14:44:36.926Z,99288.84
2022-12-11T14:47:14.169Z,99295.16
2022-12-11T14:50:10.743Z,99299.56
2022-12-11T14:52:53.002Z,99300.41
2022-12-11T14:55:31.948Z,99304.69
2022-12-11T14:58:24.592Z,99298.63
2022-12-11T15:00:59.939Z,99297.78
2022-12-11T15:03:39.897Z,99302.94
2022-12-11T15:06:33.103Z,99311.03
2022-12-11T15:09:34.252Z,99308.31
2022-12-11T15:12:16.087Z,99303.09
2022-12-11T15:15:07.550Z,99304.88
2022-12-11T15:17:38.213Z,99309.84
2022-12-11T15:20:09.733Z,99301.34
2022-12-11T15:22:39.717Z,99311.63
2022-12-11T15:25:23.723Z,99314.41
2022-12-11T15:28:02.257Z,99312.53
2022-12-11T15:30:34.516Z,99308.31
2022-12-11T15:33:23.027Z,99318.19
2022-12-11T15:36:06.317Z,99311.28
2022-12-11T15:38:41.360Z,99316.53
2022-12-11T15:41:19.564Z,99319.13
2022-12-11T15:43:58.083Z,99318.88
2022-12-11T15:46:27.978Z,99314.75
2022-12-11T15:48:59.979Z,99317.75
2022-12-11T15:51:29.691Z,99322.25
2022-12-11T15:53:58.297Z,99317.75
2022-12-11T15:56:26.679Z,99312.44
2022-12-11T15:58:53.698Z,99315.81
2022-12-11T16:01:21.345Z,99322.72
2022-12-11T16:03:50.305Z,99320.28
2022-12-11T16:06:17.005Z,99321.13
2022-12-11T16:08:43.740Z,99319.53
2022-12-11T16:11:13.266Z,99320.28
2022-12-11T16:13:40.029Z,99322.97
2022-12-11T16:16:06.911Z,99317.03
2022-12-11T16:18:33.950Z,99318.69
2022-12-11T16:21:04.964Z,99323.09
2022-12-11T16:23:31.773Z,99317.03
2022-12-11T16:25:58.742Z,99323.09
2022-12-11T16:28:25.845Z,99326.63
2022-12-11T16:30:52.849Z,99321.38
2022-12-11T16:33:20.231Z,99328.41
2022-12-11T16:35:47.546Z,99324.88
2022-12-11T16:38:14.403Z,99328.56
2022-12-11T16:40:41.963Z,99327.81
2022-12-11T16:43:09.603Z,99321.69
2022-12-11T16:45:36.736Z,99326.16
2022-12-11T16:48:05.156Z,99323.53
2022-12-11T16:50:32.348Z,99323.53
2022-12-11T16:52:59.553Z,99325.19
2022-12-11T16:55:26.648Z,99325.31
2022-12-11T16:57:54.203Z,99313.91
2022-12-11T17:00:21.131Z,99321.94
2022-12-11T17:02:49.985Z,99316.59
2022-12-11T17:05:17.214Z,99314.84
2022-12-11T17:07:44.466Z,99313.91
2022-12-11T17:10:11.561Z,99312.06
2022-12-11T17:12:38.916Z,99311.94
2022-12-11T17:15:06.359Z,99307.75
2022-12-11T17:17:33.190Z,99304.47
2022-12-11T17:20:00.315Z,99306.25
2022-12-11T17:22:27.397Z,99301.19
2022-12-11T17:24:55.170Z,99298.47
2022-12-11T17:27:21.963Z,99301.78
2022-12-11T17:29:49.575Z,99299.56
2022-12-11T17:32:17.612Z,99298.59
2022-12-11T17:34:45.022Z,99303.06
2022-12-11T17:37:12.124Z,99303.91
2022-12-11T17:39:38.803Z,99304.81
2022-12-11T17:42:06.479Z,99310.91
2022-12-11T17:44:33.158Z,99311.22
2022-12-11T17:46:59.964Z,99316.63
2022-12-11T17:49:27.195Z,99302.63
2022-12-11T17:51:55.344Z,99306.25
2022-12-11T17:54:23.505Z,99310.81
2022-12-11T17:56:50.576Z,99315.22
2022-12-11T17:59:17.670Z,99311.06
2022-12-11T18:01:45.114Z,99309.59
2022-12-11T18:04:12.036Z,99310.50
2022-12-11T18:06:39.097Z,99306.03
2022-12-11T18:09:06.258Z,99310.31
2022-12-11T18:11:33.169Z,99305.19
2022-12-11T18:14:00.094Z,99308.25
2022-12-11T18:16:30.445Z,99307.22
2022-12-11T18:18:57.307Z,99304.94
2022-12-11T18:21:27.066Z,99309.91
2022-12-11T18:23:54.185Z,99310.59
2022-12-11T18:26:21.180Z,99311.63
2022-12-11T18:28:49.221Z,99315.06
2022-12-11T18:31:16.836Z,99315.91
2022-12-11T18:33:44.763Z,99316.66
2022-12-11T18:36:13.499Z,99313.09
2022-12-11T18:38:42.118Z,99328.31
2022-12-11T18:41:10.924Z,99320.28
2022-12-11T18:43:38.504Z,99334.69
2022-12-11T18:46:14.034Z,99327.59
2022-12-11T18:48:42.091Z,99335.44
2022-12-11T18:51:12.436Z,99329.19
2022-12-11T18:53:39.826Z,99332.56
2022-12-11T18:56:12.534Z,99329.78
2022-12-11T18:58:39.432Z,99331.56
2022-12-11T19:01:08.474Z,99333.25
2022-12-11T19:03:35.565Z,99324.66
2022-12-11T19:06:10.048Z,99327.44
2022-12-11T19:08:37.206Z,99333.16
2022-12-11T19:11:04.453Z,99321.88
2022-12-11T19:13:31.743Z,99326.25
2022-12-11T19:16:00.564Z,99321.94
2022-12-11T19:18:28.204Z,99329.13
2022-12-11T19:21:06.501Z,99328.03
2022-12-11T19:23:35.469Z,99324.66
2022-12-11T19:26:02.625Z,99323.72
2022-12-11T19:28:29.812Z,99324.66
2022-12-11T19:30:57.048Z,99324.84
2022-12-11T19:33:24.204Z,99322.47
2022-12-11T19:36:01.014Z,99323.66
2022-12-11T19:38:28.205Z,99318.00
2022-12-11T19:40:55.445Z,99318.09
2022-12-11T19:43:22.447Z,99314.63
2022-12-11T19:45:49.606Z,99323.25
2022-12-11T19:48:16.485Z,99317.25
2022-12-11T19:50:43.721Z,99313.94
2022-12-11T19:53:10.647Z,99319.16
2022-12-11T19:55:37.960Z,99313.09
2022-12-11T19:58:05.564Z,99313.09
2022-12-11T20:00:33.088Z,99310.75
2022-12-11T20:02:59.940Z,99312.53
2022-12-11T20:05:27.221Z,99309.25
2022-12-11T20:07:54.744Z,99310.94
2022-12-11T20:10:21.635Z,99305.44
2022-12-11T20:12:49.048Z,99305.81
2022-12-11T20:15:19.465Z,99307.66
2022-12-11T20:17:47.668Z,99308.97
2022-12-11T20:20:14.680Z,99310.09
2022-12-11T20:22:41.657Z,99313.03
2022-12-11T20:25:08.494Z,99313.22
2022-12-11T20:27:35.223Z,99322.28
2022-12-11T20:30:02.708Z,99317.66
2022-12-11T20:32:30.729Z,99325.91
2022-12-11T20:34:58.073Z,99324.41
2022-12-11T20:37:26.441Z,99321.03
2022-12-11T20:39:54.208Z,99323.56
2022-12-11T20:42:21.266Z,99324.31
2022-12-11T20:44:49.418Z,99322.72
2022-12-11T20:47:19.966Z,99322.03
2022-12-11T20:49:47.978Z,99322.97
2022-12-11T20:52:15.891Z,99315.47
2022-12-11T20:54:43.072Z,99322.97
2022-12-11T20:57:10.611Z,99319.91
2022-12-11T20:59:37.804Z,99327.97
2022-12-11T21:02:05.504Z,99332.53
2022-12-11T21:04:32.266Z,99326.91
2022-12-11T21:07:00.145Z,99333.72
2022-12-11T21:09:27.716Z,99331.88
2022-12-11T21:11:57.355Z,99335.56
2022-12-11T21:14:24.234Z,99333.91
2022-12-11T21:16:51.135Z,99337.69
2022-12-11T21:19:20.090Z,99340.56
2022-12-11T21:21:47.285Z,99334.25
2022-12-11T21:24:17.021Z,99336.16
2022-12-11T21:26:43.754Z,99329.69
2022-12-11T21:29:10.498Z,99323.47
2022-12-11T21:31:37.313Z,99318.16
2022-12-11T21:34:04.537Z,99325.53
2022-12-11T21:36:31.261Z,99324.69
2022-12-11T21:38:59.224Z,99338.22
2022-12-11T21:41:26.059Z,99325.94
2022-12-11T21:46:41.149Z,99337.16
2022-12-11T21:49:10.607Z,99328.16
2022-12-11T21:51:42.675Z,99331.53
2022-12-11T21:54:15.846Z,99330.16
2022-12-11T21:56:42.686Z,99339.75
2022-12-11T21:59:09.395Z,99335.22
2022-12-11T22:01:40.782Z,99343.81
2022-12-11T22:04:09.319Z,99350.72
2022-12-11T22:06:36.253Z,99343.63
2022-12-11T22:09:03.537Z,99350.81
2022-12-11T22:11:32.230Z,99350.97
2022-12-11T22:13:59.184Z,99346.41
2022-12-11T22:16:26.332Z,99348.97
2022-12-11T22:18:52.982Z,99348.78
2022-12-11T22:21:20.362Z,99351.22
2022-12-11T22:23:46.937Z,99353.78
2022-12-11T22:26:19.595Z,99350.22
2022-12-11T22:28:46.414Z,99352.00
2022-12-11T22:31:14.798Z,99353.00
2022-12-11T22:33:42.736Z,99353.72
2022-12-11T22:36:10.242Z,99355.63
2022-12-11T22:38:37.050Z,99361.06
2022-12-11T22:41:20.446Z,99367.41
2022-12-11T22:43:48.872Z,99361.78
2022-12-11T22:46:16.895Z,99365.88
2022-12-11T22:48:43.722Z,99368.78
2022-12-11T22:51:10.692Z,99361.69
2022-12-11T22:53:37.607Z,99368.84
2022-12-11T22:56:08.868Z,99360.41
2022-12-11T22:58:35.716Z,99369.84
2022-12-11T23:01:02.904Z,99367.13
2022-12-11T23:03:29.693Z,99366.66
2022-12-11T23:05:58.796Z,99371.88
2022-12-11T23:08:28.991Z,99366.59
2022-12-11T23:10:55.921Z,99373.50
2022-12-11T23:13:22.537Z,99356.91
2022-12-11T23:15:49.064Z,99370.22
2022-12-11T23:18:15.923Z,99362.13
2022-12-11T23:20:42.755Z,99364.88
2022-12-11T23:23:09.415Z,99357.75
2022-12-11T23:25:36.242Z,99365.66
2022-12-11T23:28:03.240Z,99357.75
2022-12-11T23:30:29.899Z,99356.91
2022-12-11T23:32:56.569Z,99356.16
2022-12-11T23:35:23.364Z,99356.16
2022-12-11T23:37:50.075Z,99364.28
2022-12-11T23:40:17.766Z,99366.81
2022-12-11T23:42:44.494Z,99367.75
2022-12-11T23:45:11.693Z,99367.06
2022-12-11T23:47:38.649Z,99366.16
2022-12-11T23:50:05.842Z,99368.00
2022-12-11T23:52:32.559Z,99372.44
2022-12-11T23:54:59.222Z,99372.81
2022-12-11T23:57:25.832Z,99371.03
2022-12-11T23:59:52.566Z,99370.88
